sensor_id;sensor_type;location;lat;lon;timestamp;P1;durP1;ratioP1;P2;durP2;ratioP2
12042;SDS011;6082;49.306;12.862;2022-08-19T00:00:10;11.63;;;5.57;;
12042;SDS011;6082;49.306;12.862;2022-08-19T00:02:39;9.17;;;6.17;;
12042;SDS011;6082;49.306;12.862;2022-08-19T00:05:05;7.40;;;4.90;;
12042;SDS011;6082;49.306;12.862;2022-08-19T00:07:31;8.47;;;4.80;;
12042;SDS011;6082;49.306;12.862;2022-08-19T00:09:57;7.03;;;5.17;;
12042;SDS011;6082;49.306;12.862;2022-08-19T00:12:23;6.47;;;4.63;;
12042;SDS011;6082;49.306;12.862;2022-08-19T00:14:48;6.83;;;4.93;;
12042;SDS011;6082;49.306;12.862;2022-08-19T00:17:14;6.03;;;4.53;;
12042;SDS011;6082;49.306;12.862;2022-08-19T00:19:40;6.67;;;5.70;;
12042;SDS011;6082;49.306;12.862;2022-08-19T00:22:06;7.57;;;5.80;;
12042;SDS011;6082;49.306;12.862;2022-08-19T00:24:34;10.80;;;5.93;;
12042;SDS011;6082;49.306;12.862;2022-08-19T00:27:00;8.30;;;5.10;;
12042;SDS011;6082;49.306;12.862;2022-08-19T00:29:27;7.70;;;4.87;;
12042;SDS011;6082;49.306;12.862;2022-08-19T00:31:53;5.43;;;4.60;;
12042;SDS011;6082;49.306;12.862;2022-08-19T00:34:21;6.83;;;4.37;;
12042;SDS011;6082;49.306;12.862;2022-08-19T00:36:48;7.10;;;4.20;;
12042;SDS011;6082;49.306;12.862;2022-08-19T00:39:15;9.00;;;4.70;;
12042;SDS011;6082;49.306;12.862;2022-08-19T00:41:42;9.00;;;5.37;;
12042;SDS011;6082;49.306;12.862;2022-08-19T00:44:10;8.67;;;5.13;;
12042;SDS011;6082;49.306;12.862;2022-08-19T00:46:40;7.00;;;5.07;;
12042;SDS011;6082;49.306;12.862;2022-08-19T00:49:12;6.50;;;4.80;;
12042;SDS011;6082;49.306;12.862;2022-08-19T00:51:43;6.50;;;4.80;;
12042;SDS011;6082;49.306;12.862;2022-08-19T00:54:11;7.10;;;4.80;;
12042;SDS011;6082;49.306;12.862;2022-08-19T00:56:37;5.07;;;4.27;;
12042;SDS011;6082;49.306;12.862;2022-08-19T00:59:03;5.00;;;4.20;;
12042;SDS011;6082;49.306;12.862;2022-08-19T01:01:35;5.43;;;4.27;;
12042;SDS011;6082;49.306;12.862;2022-08-19T01:04:05;8.07;;;3.87;;
12042;SDS011;6082;49.306;12.862;2022-08-19T01:06:31;5.50;;;4.10;;
12042;SDS011;6082;49.306;12.862;2022-08-19T01:08:58;4.83;;;3.90;;
12042;SDS011;6082;49.306;12.862;2022-08-19T01:11:25;6.20;;;4.07;;
12042;SDS011;6082;49.306;12.862;2022-08-19T01:13:55;6.40;;;4.47;;
12042;SDS011;6082;49.306;12.862;2022-08-19T01:16:22;7.80;;;4.70;;
12042;SDS011;6082;49.306;12.862;2022-08-19T01:18:50;6.40;;;4.73;;
12042;SDS011;6082;49.306;12.862;2022-08-19T01:23:48;6.30;;;3.83;;
12042;SDS011;6082;49.306;12.862;2022-08-19T01:26:16;5.10;;;3.60;;
12042;SDS011;6082;49.306;12.862;2022-08-19T01:28:44;3.83;;;3.43;;
12042;SDS011;6082;49.306;12.862;2022-08-19T01:31:17;5.33;;;4.03;;
12042;SDS011;6082;49.306;12.862;2022-08-19T01:33:46;3.83;;;3.43;;
12042;SDS011;6082;49.306;12.862;2022-08-19T01:36:16;4.60;;;3.60;;
12042;SDS011;6082;49.306;12.862;2022-08-19T01:38:53;4.07;;;3.33;;
12042;SDS011;6082;49.306;12.862;2022-08-19T01:41:20;4.77;;;3.77;;
12042;SDS011;6082;49.306;12.862;2022-08-19T01:43:48;6.40;;;4.83;;
12042;SDS011;6082;49.306;12.862;2022-08-19T01:46:15;8.20;;;5.20;;
12042;SDS011;6082;49.306;12.862;2022-08-19T01:48:42;8.37;;;5.23;;
12042;SDS011;6082;49.306;12.862;2022-08-19T01:51:09;4.67;;;4.03;;
12042;SDS011;6082;49.306;12.862;2022-08-19T01:53:36;7.07;;;3.80;;
12042;SDS011;6082;49.306;12.862;2022-08-19T01:56:03;6.87;;;4.13;;
12042;SDS011;6082;49.306;12.862;2022-08-19T01:58:31;4.63;;;3.73;;
12042;SDS011;6082;49.306;12.862;2022-08-19T02:01:02;6.30;;;3.57;;
12042;SDS011;6082;49.306;12.862;2022-08-19T02:03:28;4.27;;;3.50;;
12042;SDS011;6082;49.306;12.862;2022-08-19T02:05:59;4.43;;;3.40;;
12042;SDS011;6082;49.306;12.862;2022-08-19T02:08:27;5.07;;;3.93;;
12042;SDS011;6082;49.306;12.862;2022-08-19T02:10:54;4.43;;;3.70;;
12042;SDS011;6082;49.306;12.862;2022-08-19T02:13:21;5.00;;;3.83;;
12042;SDS011;6082;49.306;12.862;2022-08-19T02:15:48;5.03;;;3.53;;
12042;SDS011;6082;49.306;12.862;2022-08-19T02:18:14;5.17;;;4.23;;
12042;SDS011;6082;49.306;12.862;2022-08-19T02:20:45;4.77;;;3.57;;
12042;SDS011;6082;49.306;12.862;2022-08-19T02:23:14;5.50;;;3.67;;
12042;SDS011;6082;49.306;12.862;2022-08-19T02:25:43;7.50;;;4.10;;
12042;SDS011;6082;49.306;12.862;2022-08-19T02:28:10;8.23;;;3.80;;
12042;SDS011;6082;49.306;12.862;2022-08-19T02:30:36;6.17;;;3.60;;
12042;SDS011;6082;49.306;12.862;2022-08-19T02:33:03;4.77;;;4.03;;
12042;SDS011;6082;49.306;12.862;2022-08-19T02:35:30;4.87;;;3.30;;
12042;SDS011;6082;49.306;12.862;2022-08-19T02:37:56;5.97;;;4.00;;
12042;SDS011;6082;49.306;12.862;2022-08-19T02:40:40;6.40;;;3.80;;
12042;SDS011;6082;49.306;12.862;2022-08-19T02:43:14;6.97;;;4.20;;
12042;SDS011;6082;49.306;12.862;2022-08-19T02:45:40;6.53;;;4.37;;
12042;SDS011;6082;49.306;12.862;2022-08-19T02:48:09;4.20;;;3.77;;
12042;SDS011;6082;49.306;12.862;2022-08-19T02:50:38;4.70;;;3.43;;
12042;SDS011;6082;49.306;12.862;2022-08-19T02:53:05;5.83;;;3.67;;
12042;SDS011;6082;49.306;12.862;2022-08-19T02:55:32;4.73;;;3.70;;
12042;SDS011;6082;49.306;12.862;2022-08-19T02:57:58;7.63;;;5.07;;
12042;SDS011;6082;49.306;12.862;2022-08-19T03:00:25;4.63;;;3.80;;
12042;SDS011;6082;49.306;12.862;2022-08-19T03:02:52;4.70;;;4.20;;
12042;SDS011;6082;49.306;12.862;2022-08-19T03:05:18;4.97;;;3.87;;
12042;SDS011;6082;49.306;12.862;2022-08-19T03:07:44;7.73;;;4.53;;
12042;SDS011;6082;49.306;12.862;2022-08-19T03:10:11;4.87;;;4.00;;
12042;SDS011;6082;49.306;12.862;2022-08-19T03:12:38;6.73;;;5.20;;
12042;SDS011;6082;49.306;12.862;2022-08-19T03:15:05;7.57;;;5.43;;
12042;SDS011;6082;49.306;12.862;2022-08-19T03:17:32;7.00;;;4.90;;
12042;SDS011;6082;49.306;12.862;2022-08-19T03:19:59;6.67;;;4.67;;
12042;SDS011;6082;49.306;12.862;2022-08-19T03:22:25;7.60;;;5.13;;
12042;SDS011;6082;49.306;12.862;2022-08-19T03:24:51;7.97;;;5.17;;
12042;SDS011;6082;49.306;12.862;2022-08-19T03:27:16;9.30;;;5.33;;
12042;SDS011;6082;49.306;12.862;2022-08-19T03:29:43;6.90;;;4.97;;
12042;SDS011;6082;49.306;12.862;2022-08-19T03:32:09;5.77;;;4.33;;
12042;SDS011;6082;49.306;12.862;2022-08-19T03:34:36;7.80;;;5.27;;
12042;SDS011;6082;49.306;12.862;2022-08-19T03:37:04;8.33;;;5.57;;
12042;SDS011;6082;49.306;12.862;2022-08-19T03:39:32;7.87;;;5.80;;
12042;SDS011;6082;49.306;12.862;2022-08-19T03:41:58;6.80;;;5.03;;
12042;SDS011;6082;49.306;12.862;2022-08-19T03:44:27;6.20;;;4.90;;
12042;SDS011;6082;49.306;12.862;2022-08-19T03:46:55;5.40;;;4.37;;
12042;SDS011;6082;49.306;12.862;2022-08-19T03:49:22;6.53;;;4.67;;
12042;SDS011;6082;49.306;12.862;2022-08-19T03:51:50;5.97;;;4.03;;
12042;SDS011;6082;49.306;12.862;2022-08-19T03:54:19;5.83;;;4.37;;
12042;SDS011;6082;49.306;12.862;2022-08-19T03:56:48;6.70;;;5.00;;
12042;SDS011;6082;49.306;12.862;2022-08-19T03:59:17;7.27;;;5.10;;
12042;SDS011;6082;49.306;12.862;2022-08-19T04:01:54;4.53;;;4.10;;
12042;SDS011;6082;49.306;12.862;2022-08-19T04:04:22;5.50;;;4.03;;
12042;SDS011;6082;49.306;12.862;2022-08-19T04:06:48;6.13;;;4.70;;
12042;SDS011;6082;49.306;12.862;2022-08-19T04:09:16;6.83;;;4.80;;
12042;SDS011;6082;49.306;12.862;2022-08-19T04:11:44;9.20;;;4.90;;
12042;SDS011;6082;49.306;12.862;2022-08-19T04:14:14;7.67;;;5.70;;
12042;SDS011;6082;49.306;12.862;2022-08-19T04:16:42;9.90;;;6.40;;
12042;SDS011;6082;49.306;12.862;2022-08-19T04:19:11;10.57;;;6.57;;
12042;SDS011;6082;49.306;12.862;2022-08-19T04:21:37;8.73;;;6.50;;
12042;SDS011;6082;49.306;12.862;2022-08-19T04:24:04;9.63;;;7.20;;
12042;SDS011;6082;49.306;12.862;2022-08-19T04:26:32;9.67;;;6.80;;
12042;SDS011;6082;49.306;12.862;2022-08-19T04:28:59;9.40;;;7.40;;
12042;SDS011;6082;49.306;12.862;2022-08-19T04:31:28;10.47;;;7.50;;
12042;SDS011;6082;49.306;12.862;2022-08-19T04:33:56;10.80;;;7.63;;
12042;SDS011;6082;49.306;12.862;2022-08-19T04:36:27;11.63;;;7.47;;
12042;SDS011;6082;49.306;12.862;2022-08-19T04:38:56;9.40;;;7.20;;
12042;SDS011;6082;49.306;12.862;2022-08-19T04:41:24;11.57;;;7.60;;
12042;SDS011;6082;49.306;12.862;2022-08-19T04:44:12;10.90;;;7.57;;
12042;SDS011;6082;49.306;12.862;2022-08-19T04:46:39;9.53;;;7.50;;
12042;SDS011;6082;49.306;12.862;2022-08-19T04:49:05;11.23;;;7.27;;
12042;SDS011;6082;49.306;12.862;2022-08-19T04:51:33;12.53;;;8.20;;
12042;SDS011;6082;49.306;12.862;2022-08-19T04:54:00;12.03;;;7.80;;
12042;SDS011;6082;49.306;12.862;2022-08-19T04:56:27;12.53;;;8.60;;
12042;SDS011;6082;49.306;12.862;2022-08-19T04:58:54;11.17;;;8.40;;
12042;SDS011;6082;49.306;12.862;2022-08-19T05:01:26;13.50;;;9.00;;
12042;SDS011;6082;49.306;12.862;2022-08-19T05:03:53;13.20;;;9.43;;
12042;SDS011;6082;49.306;12.862;2022-08-19T05:06:20;11.83;;;8.90;;
12042;SDS011;6082;49.306;12.862;2022-08-19T05:08:46;14.63;;;9.30;;
12042;SDS011;6082;49.306;12.862;2022-08-19T05:11:14;15.40;;;11.00;;
12042;SDS011;6082;49.306;12.862;2022-08-19T05:13:41;17.27;;;12.23;;
12042;SDS011;6082;49.306;12.862;2022-08-19T05:16:08;16.73;;;11.77;;
12042;SDS011;6082;49.306;12.862;2022-08-19T05:18:36;22.23;;;14.10;;
12042;SDS011;6082;49.306;12.862;2022-08-19T05:21:21;22.77;;;14.47;;
12042;SDS011;6082;49.306;12.862;2022-08-19T05:24:06;22.30;;;14.50;;
12042;SDS011;6082;49.306;12.862;2022-08-19T05:26:34;18.50;;;12.93;;
12042;SDS011;6082;49.306;12.862;2022-08-19T05:29:01;21.90;;;14.90;;
12042;SDS011;6082;49.306;12.862;2022-08-19T05:31:28;20.87;;;14.90;;
12042;SDS011;6082;49.306;12.862;2022-08-19T05:33:57;26.83;;;17.03;;
12042;SDS011;6082;49.306;12.862;2022-08-19T05:36:27;25.10;;;16.97;;
12042;SDS011;6082;49.306;12.862;2022-08-19T05:38:57;27.57;;;18.13;;
12042;SDS011;6082;49.306;12.862;2022-08-19T05:41:23;22.77;;;15.47;;
12042;SDS011;6082;49.306;12.862;2022-08-19T05:43:54;25.53;;;17.37;;
12042;SDS011;6082;49.306;12.862;2022-08-19T05:46:21;22.07;;;15.57;;
12042;SDS011;6082;49.306;12.862;2022-08-19T05:48:48;24.97;;;16.37;;
12042;SDS011;6082;49.306;12.862;2022-08-19T05:51:14;23.70;;;16.40;;
12042;SDS011;6082;49.306;12.862;2022-08-19T05:53:41;28.07;;;17.83;;
12042;SDS011;6082;49.306;12.862;2022-08-19T05:56:11;27.93;;;17.87;;
12042;SDS011;6082;49.306;12.862;2022-08-19T05:58:43;25.43;;;17.53;;
12042;SDS011;6082;49.306;12.862;2022-08-19T06:01:15;26.03;;;16.80;;
12042;SDS011;6082;49.306;12.862;2022-08-19T06:03:43;25.10;;;16.17;;
12042;SDS011;6082;49.306;12.862;2022-08-19T06:06:10;23.07;;;15.60;;
12042;SDS011;6082;49.306;12.862;2022-08-19T06:08:38;24.60;;;16.70;;
12042;SDS011;6082;49.306;12.862;2022-08-19T06:11:11;25.47;;;17.20;;
12042;SDS011;6082;49.306;12.862;2022-08-19T06:13:44;25.27;;;15.57;;
12042;SDS011;6082;49.306;12.862;2022-08-19T06:16:14;25.60;;;17.30;;
12042;SDS011;6082;49.306;12.862;2022-08-19T06:18:50;29.33;;;18.37;;
12042;SDS011;6082;49.306;12.862;2022-08-19T06:21:20;26.87;;;18.50;;
12042;SDS011;6082;49.306;12.862;2022-08-19T06:23:48;29.93;;;18.63;;
12042;SDS011;6082;49.306;12.862;2022-08-19T06:26:15;29.37;;;18.63;;
12042;SDS011;6082;49.306;12.862;2022-08-19T06:28:42;27.30;;;16.97;;
12042;SDS011;6082;49.306;12.862;2022-08-19T06:31:15;26.47;;;16.70;;
12042;SDS011;6082;49.306;12.862;2022-08-19T06:33:45;27.13;;;18.10;;
12042;SDS011;6082;49.306;12.862;2022-08-19T06:38:54;27.33;;;18.33;;
12042;SDS011;6082;49.306;12.862;2022-08-19T06:41:24;25.37;;;17.20;;
12042;SDS011;6082;49.306;12.862;2022-08-19T06:43:51;26.03;;;17.43;;
12042;SDS011;6082;49.306;12.862;2022-08-19T06:46:18;23.90;;;16.67;;
12042;SDS011;6082;49.306;12.862;2022-08-19T06:48:45;27.50;;;17.93;;
12042;SDS011;6082;49.306;12.862;2022-08-19T06:51:13;24.67;;;16.43;;
12042;SDS011;6082;49.306;12.862;2022-08-19T06:53:41;27.13;;;17.70;;
12042;SDS011;6082;49.306;12.862;2022-08-19T06:56:11;23.43;;;15.00;;
12042;SDS011;6082;49.306;12.862;2022-08-19T06:58:38;27.70;;;17.70;;
12042;SDS011;6082;49.306;12.862;2022-08-19T07:01:04;25.00;;;17.37;;
12042;SDS011;6082;49.306;12.862;2022-08-19T07:03:32;25.50;;;15.90;;
12042;SDS011;6082;49.306;12.862;2022-08-19T07:06:18;24.47;;;16.60;;
12042;SDS011;6082;49.306;12.862;2022-08-19T07:08:45;23.30;;;16.53;;
12042;SDS011;6082;49.306;12.862;2022-08-19T07:11:13;24.57;;;16.37;;
12042;SDS011;6082;49.306;12.862;2022-08-19T07:13:43;22.10;;;15.80;;
12042;SDS011;6082;49.306;12.862;2022-08-19T07:16:11;21.33;;;15.23;;
12042;SDS011;6082;49.306;12.862;2022-08-19T07:18:39;21.97;;;15.40;;
12042;SDS011;6082;49.306;12.862;2022-08-19T07:21:39;24.70;;;16.10;;
12042;SDS011;6082;49.306;12.862;2022-08-19T07:23:58;23.87;;;15.23;;
12042;SDS011;6082;49.306;12.862;2022-08-19T07:26:29;20.30;;;13.27;;
12042;SDS011;6082;49.306;12.862;2022-08-19T07:28:57;19.77;;;13.93;;
12042;SDS011;6082;49.306;12.862;2022-08-19T07:31:25;19.97;;;13.73;;
12042;SDS011;6082;49.306;12.862;2022-08-19T07:33:52;20.13;;;13.73;;
12042;SDS011;6082;49.306;12.862;2022-08-19T07:36:24;20.57;;;13.13;;
12042;SDS011;6082;49.306;12.862;2022-08-19T07:38:57;19.53;;;12.63;;
12042;SDS011;6082;49.306;12.862;2022-08-19T07:41:25;18.53;;;13.27;;
12042;SDS011;6082;49.306;12.862;2022-08-19T07:43:53;18.33;;;11.40;;
12042;SDS011;6082;49.306;12.862;2022-08-19T07:46:19;18.63;;;12.23;;
12042;SDS011;6082;49.306;12.862;2022-08-19T07:48:47;18.40;;;12.03;;
12042;SDS011;6082;49.306;12.862;2022-08-19T07:51:16;20.30;;;12.67;;
12042;SDS011;6082;49.306;12.862;2022-08-19T07:53:43;18.63;;;12.23;;
12042;SDS011;6082;49.306;12.862;2022-08-19T07:56:10;19.87;;;12.77;;
12042;SDS011;6082;49.306;12.862;2022-08-19T07:58:38;19.57;;;12.07;;
12042;SDS011;6082;49.306;12.862;2022-08-19T08:01:07;17.50;;;12.17;;
12042;SDS011;6082;49.306;12.862;2022-08-19T08:03:36;17.17;;;11.77;;
12042;SDS011;6082;49.306;12.862;2022-08-19T08:06:21;17.23;;;11.40;;
12042;SDS011;6082;49.306;12.862;2022-08-19T08:09:07;18.23;;;12.20;;
12042;SDS011;6082;49.306;12.862;2022-08-19T08:11:41;19.10;;;12.20;;
12042;SDS011;6082;49.306;12.862;2022-08-19T08:14:21;16.83;;;11.80;;
12042;SDS011;6082;49.306;12.862;2022-08-19T08:17:00;17.40;;;12.60;;
12042;SDS011;6082;49.306;12.862;2022-08-19T08:19:27;18.87;;;13.37;;
12042;SDS011;6082;49.306;12.862;2022-08-19T08:21:54;18.90;;;12.43;;
12042;SDS011;6082;49.306;12.862;2022-08-19T08:24:21;18.73;;;12.70;;
12042;SDS011;6082;49.306;12.862;2022-08-19T08:26:47;21.73;;;13.70;;
12042;SDS011;6082;49.306;12.862;2022-08-19T08:29:14;19.10;;;13.03;;
12042;SDS011;6082;49.306;12.862;2022-08-19T08:31:41;20.33;;;14.20;;
12042;SDS011;6082;49.306;12.862;2022-08-19T08:34:08;20.20;;;14.40;;
12042;SDS011;6082;49.306;12.862;2022-08-19T08:36:40;20.97;;;13.90;;
12042;SDS011;6082;49.306;12.862;2022-08-19T08:39:10;18.33;;;13.20;;
12042;SDS011;6082;49.306;12.862;2022-08-19T08:44:28;20.27;;;14.47;;
12042;SDS011;6082;49.306;12.862;2022-08-19T08:47:11;21.63;;;14.00;;
12042;SDS011;6082;49.306;12.862;2022-08-19T08:52:28;20.50;;;14.40;;
12042;SDS011;6082;49.306;12.862;2022-08-19T08:55:05;18.90;;;12.93;;
12042;SDS011;6082;49.306;12.862;2022-08-19T08:57:36;22.37;;;15.33;;
12042;SDS011;6082;49.306;12.862;2022-08-19T09:00:24;21.03;;;13.93;;
12042;SDS011;6082;49.306;12.862;2022-08-19T09:02:53;19.23;;;13.27;;
12042;SDS011;6082;49.306;12.862;2022-08-19T09:05:20;19.97;;;13.87;;
12042;SDS011;6082;49.306;12.862;2022-08-19T09:16:14;16.50;;;12.13;;
12042;SDS011;6082;49.306;12.862;2022-08-19T09:18:47;17.33;;;11.83;;
12042;SDS011;6082;49.306;12.862;2022-08-19T09:21:17;18.70;;;12.90;;
12042;SDS011;6082;49.306;12.862;2022-08-19T09:23:43;18.27;;;12.70;;
12042;SDS011;6082;49.306;12.862;2022-08-19T09:26:11;18.10;;;12.57;;
12042;SDS011;6082;49.306;12.862;2022-08-19T09:28:40;18.83;;;13.37;;
12042;SDS011;6082;49.306;12.862;2022-08-19T09:31:10;18.93;;;12.37;;
12042;SDS011;6082;49.306;12.862;2022-08-19T09:33:36;18.17;;;12.27;;
12042;SDS011;6082;49.306;12.862;2022-08-19T09:36:07;13.30;;;9.63;;
12042;SDS011;6082;49.306;12.862;2022-08-19T09:38:35;12.70;;;9.70;;
12042;SDS011;6082;49.306;12.862;2022-08-19T09:41:05;12.10;;;8.77;;
12042;SDS011;6082;49.306;12.862;2022-08-19T09:43:33;9.27;;;7.10;;
12042;SDS011;6082;49.306;12.862;2022-08-19T09:46:02;7.17;;;6.13;;
12042;SDS011;6082;49.306;12.862;2022-08-19T09:48:34;8.63;;;6.47;;
12042;SDS011;6082;49.306;12.862;2022-08-19T09:51:11;8.90;;;6.47;;
12042;SDS011;6082;49.306;12.862;2022-08-19T09:53:40;9.93;;;7.03;;
12042;SDS011;6082;49.306;12.862;2022-08-19T09:56:06;9.80;;;7.50;;
12042;SDS011;6082;49.306;12.862;2022-08-19T09:58:32;8.17;;;6.07;;
12042;SDS011;6082;49.306;12.862;2022-08-19T10:00:59;8.77;;;6.70;;
12042;SDS011;6082;49.306;12.862;2022-08-19T10:03:26;9.70;;;6.73;;
12042;SDS011;6082;49.306;12.862;2022-08-19T10:05:54;8.80;;;7.00;;
12042;SDS011;6082;49.306;12.862;2022-08-19T10:08:23;8.40;;;6.83;;
12042;SDS011;6082;49.306;12.862;2022-08-19T10:10:54;9.63;;;7.47;;
12042;SDS011;6082;49.306;12.862;2022-08-19T10:13:21;10.17;;;7.63;;
12042;SDS011;6082;49.306;12.862;2022-08-19T10:15:50;10.10;;;7.87;;
12042;SDS011;6082;49.306;12.862;2022-08-19T10:18:19;9.53;;;7.00;;
12042;SDS011;6082;49.306;12.862;2022-08-19T10:20:46;10.30;;;6.67;;
12042;SDS011;6082;49.306;12.862;2022-08-19T10:23:13;11.23;;;7.50;;
12042;SDS011;6082;49.306;12.862;2022-08-19T10:25:40;9.23;;;6.80;;
12042;SDS011;6082;49.306;12.862;2022-08-19T10:28:10;8.07;;;6.53;;
12042;SDS011;6082;49.306;12.862;2022-08-19T10:30:39;6.73;;;5.67;;
12042;SDS011;6082;49.306;12.862;2022-08-19T10:33:05;7.90;;;5.80;;
12042;SDS011;6082;49.306;12.862;2022-08-19T10:35:31;6.90;;;5.83;;
12042;SDS011;6082;49.306;12.862;2022-08-19T10:37:58;5.27;;;4.43;;
12042;SDS011;6082;49.306;12.862;2022-08-19T10:40:24;8.50;;;5.40;;
12042;SDS011;6082;49.306;12.862;2022-08-19T10:42:51;6.73;;;4.87;;
12042;SDS011;6082;49.306;12.862;2022-08-19T10:45:17;5.93;;;4.90;;
12042;SDS011;6082;49.306;12.862;2022-08-19T10:47:43;5.90;;;4.97;;
12042;SDS011;6082;49.306;12.862;2022-08-19T10:50:09;6.80;;;5.20;;
12042;SDS011;6082;49.306;12.862;2022-08-19T10:52:53;8.57;;;5.90;;
12042;SDS011;6082;49.306;12.862;2022-08-19T10:55:20;7.47;;;5.47;;
12042;SDS011;6082;49.306;12.862;2022-08-19T10:58:14;6.73;;;6.03;;
12042;SDS011;6082;49.306;12.862;2022-08-19T11:00:41;6.43;;;5.13;;
12042;SDS011;6082;49.306;12.862;2022-08-19T11:03:10;7.17;;;5.33;;
12042;SDS011;6082;49.306;12.862;2022-08-19T11:05:36;6.87;;;5.50;;
12042;SDS011;6082;49.306;12.862;2022-08-19T11:08:03;7.17;;;5.53;;
12042;SDS011;6082;49.306;12.862;2022-08-19T11:10:30;5.63;;;5.00;;
12042;SDS011;6082;49.306;12.862;2022-08-19T11:12:56;8.60;;;5.10;;
12042;SDS011;6082;49.306;12.862;2022-08-19T11:15:21;6.27;;;5.03;;
12042;SDS011;6082;49.306;12.862;2022-08-19T11:17:48;6.77;;;5.40;;
12042;SDS011;6082;49.306;12.862;2022-08-19T11:20:14;6.80;;;5.30;;
12042;SDS011;6082;49.306;12.862;2022-08-19T11:22:40;7.47;;;5.07;;
12042;SDS011;6082;49.306;12.862;2022-08-19T11:25:07;5.73;;;4.70;;
12042;SDS011;6082;49.306;12.862;2022-08-19T11:27:37;6.80;;;5.07;;
12042;SDS011;6082;49.306;12.862;2022-08-19T11:30:04;5.70;;;5.00;;
12042;SDS011;6082;49.306;12.862;2022-08-19T11:32:32;5.97;;;4.70;;
12042;SDS011;6082;49.306;12.862;2022-08-19T11:34:58;5.83;;;5.00;;
12042;SDS011;6082;49.306;12.862;2022-08-19T11:37:24;8.37;;;5.43;;
12042;SDS011;6082;49.306;12.862;2022-08-19T11:39:50;5.70;;;4.97;;
12042;SDS011;6082;49.306;12.862;2022-08-19T11:42:15;6.37;;;4.90;;
12042;SDS011;6082;49.306;12.862;2022-08-19T11:45:01;6.97;;;4.90;;
12042;SDS011;6082;49.306;12.862;2022-08-19T11:47:29;7.47;;;5.43;;
12042;SDS011;6082;49.306;12.862;2022-08-19T11:49:55;6.27;;;4.87;;
12042;SDS011;6082;49.306;12.862;2022-08-19T11:52:21;5.90;;;5.00;;
12042;SDS011;6082;49.306;12.862;2022-08-19T11:54:47;6.43;;;5.33;;
12042;SDS011;6082;49.306;12.862;2022-08-19T11:57:13;6.47;;;5.00;;
12042;SDS011;6082;49.306;12.862;2022-08-19T11:59:41;5.47;;;4.70;;
12042;SDS011;6082;49.306;12.862;2022-08-19T12:02:12;5.13;;;4.37;;
12042;SDS011;6082;49.306;12.862;2022-08-19T12:04:38;6.67;;;5.00;;
12042;SDS011;6082;49.306;12.862;2022-08-19T12:07:04;5.77;;;4.40;;
12042;SDS011;6082;49.306;12.862;2022-08-19T12:09:30;5.50;;;4.53;;
12042;SDS011;6082;49.306;12.862;2022-08-19T12:11:57;6.03;;;4.50;;
12042;SDS011;6082;49.306;12.862;2022-08-19T12:14:22;5.53;;;4.80;;
12042;SDS011;6082;49.306;12.862;2022-08-19T12:16:49;5.57;;;4.73;;
12042;SDS011;6082;49.306;12.862;2022-08-19T12:19:14;5.87;;;4.53;;
12042;SDS011;6082;49.306;12.862;2022-08-19T12:21:43;5.13;;;4.40;;
12042;SDS011;6082;49.306;12.862;2022-08-19T12:24:09;5.37;;;4.53;;
12042;SDS011;6082;49.306;12.862;2022-08-19T12:26:35;7.30;;;5.03;;
12042;SDS011;6082;49.306;12.862;2022-08-19T12:29:01;5.73;;;4.80;;
12042;SDS011;6082;49.306;12.862;2022-08-19T12:35:22;5.70;;;4.77;;
12042;SDS011;6082;49.306;12.862;2022-08-19T12:38:35;6.13;;;4.57;;
12042;SDS011;6082;49.306;12.862;2022-08-19T12:41:01;5.80;;;4.60;;
12042;SDS011;6082;49.306;12.862;2022-08-19T12:43:31;6.77;;;4.67;;
12042;SDS011;6082;49.306;12.862;2022-08-19T12:46:00;6.80;;;4.50;;
12042;SDS011;6082;49.306;12.862;2022-08-19T12:48:27;6.10;;;4.73;;
12042;SDS011;6082;49.306;12.862;2022-08-19T12:50:54;7.70;;;5.40;;
12042;SDS011;6082;49.306;12.862;2022-08-19T12:53:19;6.97;;;5.33;;
12042;SDS011;6082;49.306;12.862;2022-08-19T12:55:45;5.87;;;5.07;;
12042;SDS011;6082;49.306;12.862;2022-08-19T12:58:11;6.97;;;5.13;;
12042;SDS011;6082;49.306;12.862;2022-08-19T13:00:37;6.97;;;5.10;;
12042;SDS011;6082;49.306;12.862;2022-08-19T13:03:04;6.07;;;5.07;;
12042;SDS011;6082;49.306;12.862;2022-08-19T13:05:31;5.43;;;4.83;;
12042;SDS011;6082;49.306;12.862;2022-08-19T13:07:58;6.57;;;5.33;;
12042;SDS011;6082;49.306;12.862;2022-08-19T13:10:26;7.00;;;5.37;;
12042;SDS011;6082;49.306;12.862;2022-08-19T13:12:59;7.47;;;5.80;;
12042;SDS011;6082;49.306;12.862;2022-08-19T13:15:27;7.27;;;5.70;;
12042;SDS011;6082;49.306;12.862;2022-08-19T13:17:53;8.50;;;6.00;;
12042;SDS011;6082;49.306;12.862;2022-08-19T13:20:21;7.57;;;6.23;;
12042;SDS011;6082;49.306;12.862;2022-08-19T13:22:47;6.53;;;5.40;;
12042;SDS011;6082;49.306;12.862;2022-08-19T13:25:13;6.27;;;5.40;;
12042;SDS011;6082;49.306;12.862;2022-08-19T13:27:42;8.10;;;5.47;;
12042;SDS011;6082;49.306;12.862;2022-08-19T13:30:09;9.33;;;6.97;;
12042;SDS011;6082;49.306;12.862;2022-08-19T13:32:56;6.90;;;5.97;;
12042;SDS011;6082;49.306;12.862;2022-08-19T13:35:40;8.83;;;5.77;;
12042;SDS011;6082;49.306;12.862;2022-08-19T13:38:06;6.37;;;5.57;;
12042;SDS011;6082;49.306;12.862;2022-08-19T13:40:32;7.17;;;5.80;;
12042;SDS011;6082;49.306;12.862;2022-08-19T13:42:59;7.20;;;5.80;;
12042;SDS011;6082;49.306;12.862;2022-08-19T13:45:26;7.47;;;5.87;;
12042;SDS011;6082;49.306;12.862;2022-08-19T13:47:53;7.10;;;5.70;;
12042;SDS011;6082;49.306;12.862;2022-08-19T13:50:23;7.43;;;6.27;;
12042;SDS011;6082;49.306;12.862;2022-08-19T13:52:52;7.70;;;5.73;;
12042;SDS011;6082;49.306;12.862;2022-08-19T13:55:18;7.17;;;5.77;;
12042;SDS011;6082;49.306;12.862;2022-08-19T13:57:45;6.47;;;5.37;;
12042;SDS011;6082;49.306;12.862;2022-08-19T14:00:12;6.80;;;5.80;;
12042;SDS011;6082;49.306;12.862;2022-08-19T14:02:43;9.20;;;6.43;;
12042;SDS011;6082;49.306;12.862;2022-08-19T14:05:10;7.80;;;6.20;;
12042;SDS011;6082;49.306;12.862;2022-08-19T14:07:37;7.43;;;5.87;;
12042;SDS011;6082;49.306;12.862;2022-08-19T14:10:04;7.47;;;5.67;;
12042;SDS011;6082;49.306;12.862;2022-08-19T14:12:32;7.07;;;5.63;;
12042;SDS011;6082;49.306;12.862;2022-08-19T14:14:58;7.47;;;5.90;;
12042;SDS011;6082;49.306;12.862;2022-08-19T14:17:24;8.33;;;6.40;;
12042;SDS011;6082;49.306;12.862;2022-08-19T14:19:55;6.47;;;5.17;;
12042;SDS011;6082;49.306;12.862;2022-08-19T14:22:22;8.27;;;5.80;;
12042;SDS011;6082;49.306;12.862;2022-08-19T14:24:51;7.07;;;5.30;;
12042;SDS011;6082;49.306;12.862;2022-08-19T14:27:16;8.00;;;5.73;;
12042;SDS011;6082;49.306;12.862;2022-08-19T14:29:42;6.93;;;5.33;;
12042;SDS011;6082;49.306;12.862;2022-08-19T14:32:09;6.87;;;5.67;;
12042;SDS011;6082;49.306;12.862;2022-08-19T14:34:35;5.73;;;5.03;;
12042;SDS011;6082;49.306;12.862;2022-08-19T14:37:02;6.83;;;6.10;;
12042;SDS011;6082;49.306;12.862;2022-08-19T14:39:28;6.70;;;5.50;;
12042;SDS011;6082;49.306;12.862;2022-08-19T14:41:54;8.33;;;6.40;;
12042;SDS011;6082;49.306;12.862;2022-08-19T14:44:19;7.13;;;5.23;;
12042;SDS011;6082;49.306;12.862;2022-08-19T14:46:45;6.80;;;5.50;;
12042;SDS011;6082;49.306;12.862;2022-08-19T14:49:11;7.37;;;5.67;;
12042;SDS011;6082;49.306;12.862;2022-08-19T14:51:37;7.57;;;5.70;;
12042;SDS011;6082;49.306;12.862;2022-08-19T14:54:03;7.70;;;5.33;;
12042;SDS011;6082;49.306;12.862;2022-08-19T14:56:29;7.07;;;5.53;;
12042;SDS011;6082;49.306;12.862;2022-08-19T14:58:55;7.43;;;5.63;;
12042;SDS011;6082;49.306;12.862;2022-08-19T15:01:28;5.83;;;5.00;;
12042;SDS011;6082;49.306;12.862;2022-08-19T15:03:54;8.57;;;5.47;;
12042;SDS011;6082;49.306;12.862;2022-08-19T15:06:21;7.10;;;5.80;;
12042;SDS011;6082;49.306;12.862;2022-08-19T15:08:48;6.43;;;5.40;;
12042;SDS011;6082;49.306;12.862;2022-08-19T15:11:16;6.17;;;5.53;;